createdAt,value
2017-07-25T00:02:18.299Z,3.25
2017-07-25T00:04:45.951Z,4.53
2017-07-25T00:07:13.575Z,3.45
2017-07-25T00:09:41.959Z,3.08
2017-07-25T00:12:09.630Z,3.00
2017-07-25T00:14:37.269Z,6.18
2017-07-25T00:17:04.902Z,4.37
2017-07-25T00:19:32.568Z,2.33
2017-07-25T00:22:00.247Z,2.83
2017-07-25T00:24:27.877Z,2.92
2017-07-25T00:26:55.532Z,2.30
2017-07-25T00:29:23.160Z,5.53
2017-07-25T00:31:50.794Z,2.87
2017-07-25T00:34:18.464Z,2.15
2017-07-25T00:36:46.088Z,2.50
2017-07-25T00:39:13.716Z,1.62
2017-07-25T00:41:41.379Z,3.90
2017-07-25T00:44:09.023Z,2.90
2017-07-25T00:46:36.654Z,2.15
2017-07-25T00:49:04.319Z,2.58
2017-07-25T00:51:31.959Z,3.33
2017-07-25T00:53:59.593Z,2.05
2017-07-25T00:56:27.267Z,2.05
2017-07-25T00:58:54.897Z,2.62
2017-07-25T01:01:22.532Z,7.78
2017-07-25T01:03:50.196Z,2.65
2017-07-25T01:06:17.829Z,4.97
2017-07-25T01:08:45.456Z,1.90
2017-07-25T01:11:13.887Z,2.15
2017-07-25T01:13:41.530Z,2.72
2017-07-25T01:16:09.171Z,4.40
2017-07-25T01:18:36.829Z,2.33
2017-07-25T01:21:04.457Z,3.90
2017-07-25T01:23:32.087Z,4.37
2017-07-25T01:25:59.747Z,2.47
2017-07-25T01:28:27.376Z,3.20
2017-07-25T01:30:55.009Z,2.87
2017-07-25T01:33:22.674Z,2.75
2017-07-25T01:35:50.300Z,2.35
2017-07-25T01:38:17.931Z,3.15
2017-07-25T01:40:46.351Z,2.47
2017-07-25T01:43:13.971Z,3.17
2017-07-25T01:45:41.672Z,3.17
2017-07-25T01:48:09.328Z,2.17
2017-07-25T01:50:37.719Z,3.92
2017-07-25T01:53:05.344Z,2.60
2017-07-25T01:55:33.769Z,2.78
2017-07-25T01:58:01.402Z,4.32
2017-07-25T02:00:29.031Z,4.18
2017-07-25T02:02:56.691Z,2.70
2017-07-25T02:05:24.326Z,2.70
2017-07-25T02:07:51.965Z,2.20
2017-07-25T02:10:19.623Z,2.95
2017-07-25T02:12:47.248Z,2.83
2017-07-25T02:15:14.893Z,4.20
2017-07-25T02:17:42.562Z,3.75
2017-07-25T02:20:10.201Z,2.22
2017-07-25T02:22:37.834Z,2.65
2017-07-25T02:25:05.497Z,2.42
2017-07-25T02:27:33.131Z,2.65
2017-07-25T02:30:00.774Z,3.03
2017-07-25T02:32:28.441Z,2.15
2017-07-25T02:34:56.064Z,3.17
2017-07-25T02:37:23.696Z,2.75
2017-07-25T02:39:52.115Z,2.03
2017-07-25T02:42:19.755Z,3.25
2017-07-25T02:44:47.379Z,2.40
2017-07-25T02:47:15.048Z,3.87
2017-07-25T02:49:42.671Z,2.42
2017-07-25T02:52:10.296Z,2.20
2017-07-25T02:54:38.738Z,2.45
2017-07-25T02:57:06.379Z,2.33
2017-07-25T02:59:34.011Z,2.10
2017-07-25T03:02:01.682Z,2.47
2017-07-25T03:04:29.313Z,2.05
2017-07-25T03:06:56.966Z,3.25
2017-07-25T03:09:24.614Z,2.65
2017-07-25T03:11:52.255Z,2.65
2017-07-25T03:14:19.874Z,2.28
2017-07-25T03:16:47.544Z,2.22
2017-07-25T03:19:15.168Z,2.50
2017-07-25T03:21:42.791Z,2.75
2017-07-25T03:24:10.458Z,2.08
2017-07-25T03:26:38.111Z,2.50
2017-07-25T03:29:05.753Z,2.10
2017-07-25T03:31:33.417Z,1.90
2017-07-25T03:34:01.035Z,2.12
2017-07-25T03:36:28.664Z,3.92
2017-07-25T03:38:56.380Z,2.20
2017-07-25T03:41:24.039Z,2.05
2017-07-25T03:43:52.437Z,2.40
2017-07-25T03:46:20.100Z,2.42
2017-07-25T03:48:47.733Z,2.30
2017-07-25T03:51:15.373Z,3.10
2017-07-25T03:53:43.041Z,3.45
2017-07-25T03:56:10.668Z,2.50
2017-07-25T03:58:38.300Z,2.28
2017-07-25T04:01:05.966Z,1.95
2017-07-25T04:03:33.599Z,2.03
2017-07-25T04:06:01.229Z,3.95
2017-07-25T04:08:29.663Z,2.05
2017-07-25T04:10:57.290Z,2.12
2017-07-25T04:13:24.930Z,1.70
2017-07-25T04:15:52.598Z,3.10
2017-07-25T04:18:20.241Z,1.77
2017-07-25T04:20:47.872Z,2.60
2017-07-25T04:23:15.532Z,1.90
2017-07-25T04:25:43.165Z,3.35
2017-07-25T04:28:10.797Z,3.37
2017-07-25T04:30:38.464Z,2.25
2017-07-25T04:33:06.087Z,2.65
2017-07-25T04:35:33.707Z,2.45
2017-07-25T04:38:02.137Z,2.30
2017-07-25T04:40:29.769Z,3.10
2017-07-25T04:42:57.393Z,2.15
2017-07-25T04:45:25.067Z,2.67
2017-07-25T04:47:52.687Z,1.90
2017-07-25T04:50:20.311Z,2.75
2017-07-25T04:52:47.967Z,1.67
2017-07-25T04:55:15.604Z,1.50
2017-07-25T04:57:43.238Z,2.20
2017-07-25T05:00:11.654Z,2.10
2017-07-25T05:02:39.293Z,1.90
2017-07-25T05:05:06.915Z,1.70
2017-07-25T05:07:34.596Z,1.62
2017-07-25T05:10:02.215Z,1.52
2017-07-25T05:12:29.839Z,1.62
2017-07-25T05:14:58.265Z,1.77
2017-07-25T05:17:25.892Z,3.17
2017-07-25T05:19:53.527Z,1.62
2017-07-25T05:22:21.200Z,3.97
2017-07-25T05:24:48.837Z,2.35
2017-07-25T05:27:16.561Z,1.60
2017-07-25T05:29:44.232Z,3.12
2017-07-25T05:32:11.852Z,1.40
2017-07-25T05:34:39.482Z,1.67
2017-07-25T05:37:07.927Z,1.58
2017-07-25T05:39:35.558Z,1.52
2017-07-25T05:42:03.204Z,2.67
2017-07-25T05:44:30.865Z,1.95
2017-07-25T05:46:59.254Z,1.73
2017-07-25T05:49:26.910Z,3.15
2017-07-25T05:51:54.585Z,1.40
2017-07-25T05:54:22.224Z,2.78
2017-07-25T05:56:49.857Z,1.30
2017-07-25T05:59:17.521Z,1.10
2017-07-25T06:01:45.161Z,1.80
2017-07-25T06:04:12.796Z,1.65
2017-07-25T06:06:40.474Z,2.67
2017-07-25T06:09:08.103Z,1.80
2017-07-25T06:11:35.751Z,1.08
2017-07-25T06:14:03.425Z,0.88
2017-07-25T06:16:31.077Z,1.92
2017-07-25T06:18:58.731Z,3.15
2017-07-25T06:21:26.397Z,1.05
2017-07-25T06:23:54.819Z,1.02
2017-07-25T06:26:22.459Z,2.35
2017-07-25T06:28:50.129Z,1.12
2017-07-25T06:31:17.758Z,1.05
2017-07-25T06:33:45.408Z,1.87
2017-07-25T06:36:13.074Z,2.47
2017-07-25T06:38:40.723Z,3.05
2017-07-25T06:41:08.425Z,2.55
2017-07-25T06:43:36.097Z,2.80
2017-07-25T06:46:03.733Z,2.55
2017-07-25T06:48:31.374Z,1.92
2017-07-25T06:50:59.057Z,4.18
2017-07-25T06:53:26.710Z,2.40
2017-07-25T06:58:28.460Z,2.33
2017-07-25T07:00:56.856Z,3.12
2017-07-25T07:03:24.535Z,2.30
2017-07-25T07:05:52.209Z,2.50
2017-07-25T07:08:19.853Z,3.33
2017-07-25T07:10:47.493Z,2.50
2017-07-25T07:13:15.174Z,2.20
2017-07-25T07:15:42.811Z,2.53
2017-07-25T07:18:11.213Z,2.62
2017-07-25T07:20:38.884Z,2.90
2017-07-25T07:23:06.522Z,3.58
2017-07-25T07:25:34.165Z,2.58
2017-07-25T07:28:01.835Z,3.28
2017-07-25T07:30:29.478Z,2.53
2017-07-25T07:32:57.115Z,3.00
2017-07-25T07:35:24.769Z,2.30
2017-07-25T07:37:52.405Z,2.22
2017-07-25T07:40:20.046Z,2.50
2017-07-25T07:42:47.722Z,3.40
2017-07-25T07:45:15.357Z,2.67
2017-07-25T07:47:42.980Z,2.00
2017-07-25T07:50:10.666Z,2.85
2017-07-25T07:52:38.301Z,1.20
2017-07-25T07:55:05.936Z,4.80
2017-07-25T07:57:33.602Z,1.17
2017-07-25T08:00:01.255Z,0.90
2017-07-25T08:02:29.667Z,1.33
2017-07-25T08:04:57.337Z,0.88
2017-07-25T08:07:25.001Z,1.15
2017-07-25T08:09:52.634Z,1.10
2017-07-25T08:12:20.297Z,0.80
2017-07-25T08:14:48.717Z,1.17
2017-07-25T08:17:16.378Z,1.10
2017-07-25T08:19:44.064Z,1.70
2017-07-25T08:22:11.705Z,1.65
2017-07-25T08:24:39.395Z,1.12
2017-07-25T08:27:07.061Z,1.90
2017-07-25T08:29:34.683Z,0.98
2017-07-25T08:32:02.317Z,1.50
2017-07-25T08:34:29.984Z,3.37
2017-07-25T08:36:57.640Z,0.95
2017-07-25T08:39:25.274Z,1.23
2017-07-25T08:41:52.957Z,1.20
2017-07-25T08:44:20.595Z,1.40
2017-07-25T08:46:48.226Z,1.33
2017-07-25T08:49:15.909Z,1.35
2017-07-25T08:51:43.560Z,1.37
2017-07-25T08:54:11.206Z,1.40
2017-07-25T08:56:38.863Z,1.23
2017-07-25T08:59:07.268Z,3.72
2017-07-25T09:01:34.903Z,1.35
2017-07-25T09:04:02.759Z,2.10
2017-07-25T09:06:30.388Z,1.98
2017-07-25T09:08:58.024Z,1.05
2017-07-25T09:11:25.705Z,1.10
2017-07-25T09:13:53.339Z,1.20
2017-07-25T09:16:20.982Z,1.17
2017-07-25T09:18:49.410Z,2.35
2017-07-25T09:21:17.062Z,1.10
2017-07-25T09:23:52.719Z,1.42
2017-07-25T09:26:20.361Z,1.10
2017-07-25T09:28:48.762Z,1.50
2017-07-25T09:31:16.435Z,1.20
2017-07-25T09:33:44.075Z,1.90
2017-07-25T09:36:11.723Z,1.30
2017-07-25T09:38:39.394Z,1.10
2017-07-25T09:41:07.026Z,1.55
2017-07-25T09:43:34.657Z,1.20
2017-07-25T09:46:02.345Z,1.20
2017-07-25T09:48:30.742Z,1.23
2017-07-25T09:50:58.378Z,1.80
2017-07-25T09:53:26.060Z,1.10
2017-07-25T09:55:53.696Z,1.30
2017-07-25T09:58:21.323Z,2.62
2017-07-25T10:00:49.004Z,1.40
2017-07-25T10:03:16.635Z,1.42
2017-07-25T10:05:44.267Z,2.55
2017-07-25T10:08:11.942Z,1.20
2017-07-25T10:10:39.568Z,2.25
2017-07-25T10:13:07.437Z,1.40
2017-07-25T10:15:35.121Z,1.15
2017-07-25T10:18:02.766Z,1.35
2017-07-25T10:20:30.387Z,1.12
2017-07-25T10:22:58.052Z,1.25
2017-07-25T10:25:25.693Z,0.90
2017-07-25T10:27:53.327Z,1.15
2017-07-25T10:30:21.009Z,0.90
2017-07-25T10:32:49.421Z,1.10
2017-07-25T10:35:17.049Z,1.75
2017-07-25T10:37:44.728Z,1.98
2017-07-25T10:40:12.348Z,0.90
2017-07-25T10:42:40.726Z,0.70
2017-07-25T10:45:08.633Z,2.70
2017-07-25T10:47:36.269Z,2.10
2017-07-25T10:50:03.893Z,0.90
2017-07-25T10:52:31.550Z,1.47
2017-07-25T10:54:59.169Z,1.53
2017-07-25T10:57:26.789Z,1.93
2017-07-25T10:59:55.201Z,1.07
2017-07-25T11:02:22.810Z,1.10
2017-07-25T11:04:50.416Z,1.47
2017-07-25T11:07:18.066Z,0.90
2017-07-25T11:09:45.703Z,1.10
2017-07-25T11:12:13.323Z,1.27
2017-07-25T11:14:40.970Z,0.90
2017-07-25T11:17:08.584Z,1.20
2017-07-25T11:19:36.200Z,0.90
2017-07-25T11:22:03.840Z,2.07
2017-07-25T11:24:31.461Z,0.80
2017-07-25T11:26:59.079Z,0.77
2017-07-25T11:29:26.733Z,0.80
2017-07-25T11:31:54.358Z,0.80
2017-07-25T11:34:21.969Z,0.80
2017-07-25T11:36:49.616Z,1.00
2017-07-25T11:39:17.231Z,0.90
2017-07-25T11:41:44.845Z,0.77
2017-07-25T11:44:13.795Z,1.83
2017-07-25T11:46:41.413Z,1.17
2017-07-25T11:49:09.034Z,0.80
2017-07-25T11:51:36.680Z,0.93
2017-07-25T11:54:04.297Z,4.40
2017-07-25T11:56:32.675Z,1.13
2017-07-25T11:59:00.340Z,0.70
2017-07-25T12:01:27.939Z,0.83
2017-07-25T12:03:55.555Z,0.80
2017-07-25T12:06:23.201Z,0.70
2017-07-25T12:08:50.809Z,0.70
2017-07-25T12:11:18.413Z,1.60
2017-07-25T12:13:46.052Z,1.67
2017-07-25T12:16:13.667Z,0.97
2017-07-25T12:18:41.280Z,1.10
2017-07-25T12:21:21.605Z,0.70
2017-07-25T12:23:49.988Z,0.90
2017-07-25T12:26:17.609Z,1.37
2017-07-25T12:28:45.246Z,0.80
2017-07-25T12:31:12.861Z,0.60
2017-07-25T12:33:40.475Z,1.30
2017-07-25T12:36:14.575Z,1.37
2017-07-25T12:38:42.191Z,0.70
2017-07-25T12:41:09.817Z,0.77
2017-07-25T12:43:37.462Z,0.60
2017-07-25T12:46:05.106Z,0.73
2017-07-25T12:48:32.719Z,0.50
2017-07-25T12:51:00.371Z,0.80
2017-07-25T12:53:27.978Z,1.63
2017-07-25T12:55:56.355Z,0.97
2017-07-25T12:58:24.798Z,0.80
2017-07-25T13:01:04.405Z,0.70
2017-07-25T13:03:32.065Z,0.80
2017-07-25T13:05:59.676Z,0.80
2017-07-25T13:08:27.280Z,0.80
2017-07-25T13:10:55.696Z,0.60
2017-07-25T13:13:23.326Z,0.67
2017-07-25T13:15:50.968Z,0.80
2017-07-25T13:18:18.623Z,1.37
2017-07-25T13:20:46.266Z,1.23
2017-07-25T13:23:13.891Z,1.42
2017-07-25T13:25:41.531Z,1.10
2017-07-25T13:28:09.165Z,1.60
2017-07-25T13:30:36.805Z,1.30
2017-07-25T13:33:04.482Z,1.17
2017-07-25T13:35:32.131Z,1.40
2017-07-25T13:37:59.778Z,1.30
2017-07-25T13:40:27.444Z,0.80
2017-07-25T13:42:55.057Z,1.70
2017-07-25T13:45:22.695Z,0.70
2017-07-25T13:47:50.339Z,1.17
2017-07-25T13:50:18.707Z,0.93
2017-07-25T13:52:46.321Z,1.10
2017-07-25T13:55:13.956Z,1.57
2017-07-25T13:57:41.583Z,1.53
2017-07-25T14:00:09.199Z,4.30
2017-07-25T14:02:37.603Z,1.30
2017-07-25T14:05:05.205Z,0.70
2017-07-25T14:07:32.811Z,1.07
2017-07-25T14:10:00.477Z,1.83
2017-07-25T14:12:28.080Z,1.20
2017-07-25T14:14:55.684Z,0.70
2017-07-25T14:17:24.090Z,1.03
2017-07-25T14:19:51.697Z,0.80
2017-07-25T14:22:19.316Z,0.87
2017-07-25T14:24:46.973Z,0.77
2017-07-25T14:27:15.360Z,0.80
2017-07-25T14:29:42.982Z,0.77
2017-07-25T14:32:10.650Z,0.87
2017-07-25T14:34:38.260Z,1.30
2017-07-25T14:37:05.880Z,0.97
2017-07-25T14:39:33.578Z,1.37
2017-07-25T14:42:01.952Z,0.70
2017-07-25T14:44:29.563Z,1.33
2017-07-25T14:46:57.213Z,0.83
2017-07-25T14:49:24.828Z,0.90
2017-07-25T14:51:52.440Z,0.60
2017-07-25T14:54:20.086Z,3.03
2017-07-25T14:56:47.696Z,0.90
2017-07-25T14:59:15.310Z,0.60
2017-07-25T15:01:42.960Z,1.33
2017-07-25T15:04:10.581Z,1.43
2017-07-25T15:06:38.182Z,0.70
2017-07-25T15:09:05.820Z,0.70
2017-07-25T15:11:33.432Z,0.77
2017-07-25T15:14:01.045Z,1.67
2017-07-25T15:16:28.697Z,0.83
2017-07-25T15:18:56.313Z,0.97
2017-07-25T15:21:23.944Z,3.07
2017-07-25T15:23:51.601Z,0.80
2017-07-25T15:26:19.236Z,0.80
2017-07-25T15:28:46.839Z,2.30
2017-07-25T15:31:14.536Z,0.90
2017-07-25T15:33:42.938Z,1.15
2017-07-25T15:36:10.566Z,0.77
2017-07-25T15:38:38.229Z,1.00
2017-07-25T15:41:05.879Z,1.20
2017-07-25T15:43:33.489Z,0.93
2017-07-25T15:46:01.163Z,0.70
2017-07-25T15:48:28.787Z,0.70
2017-07-25T15:50:57.183Z,0.65
2017-07-25T15:53:24.831Z,0.60
2017-07-25T15:55:52.471Z,0.77
2017-07-25T15:58:20.110Z,1.23
2017-07-25T16:00:47.775Z,0.73
2017-07-25T16:03:15.418Z,0.88
2017-07-25T16:05:43.083Z,0.80
2017-07-25T16:08:10.762Z,2.83
2017-07-25T16:10:38.388Z,0.80
2017-07-25T16:13:06.037Z,0.85
2017-07-25T16:15:33.697Z,0.80
2017-07-25T16:18:01.342Z,2.42
2017-07-25T16:20:28.977Z,0.80
2017-07-25T16:22:56.631Z,0.70
2017-07-25T16:25:24.247Z,0.70
2017-07-25T16:27:51.854Z,1.10
2017-07-25T16:30:19.514Z,1.67
2017-07-25T16:32:47.893Z,1.70
2017-07-25T16:35:15.537Z,0.77
2017-07-25T16:37:43.168Z,1.00
2017-07-25T16:40:10.809Z,1.30
2017-07-25T16:42:38.448Z,1.23
2017-07-25T16:45:06.109Z,0.97
2017-07-25T16:47:33.748Z,1.10
2017-07-25T16:50:01.380Z,1.20
2017-07-25T16:52:29.026Z,1.17
2017-07-25T16:54:57.445Z,1.17
2017-07-25T16:57:25.076Z,1.55
2017-07-25T16:59:52.754Z,1.62
2017-07-25T17:02:20.388Z,1.30
2017-07-25T17:04:48.017Z,1.45
2017-07-25T17:07:15.685Z,1.10
2017-07-25T17:09:43.365Z,1.30
2017-07-25T17:12:10.985Z,1.30
2017-07-25T17:14:38.648Z,1.37
2017-07-25T17:17:06.268Z,1.27
2017-07-25T17:19:33.905Z,1.55
2017-07-25T17:22:01.581Z,1.60
2017-07-25T17:24:29.233Z,1.92
2017-07-25T17:26:57.546Z,2.45
2017-07-25T17:29:25.205Z,3.03
2017-07-25T17:31:52.836Z,3.65
2017-07-25T17:34:20.469Z,3.55
2017-07-25T17:36:48.161Z,3.30
2017-07-25T17:39:15.784Z,2.92
2017-07-25T17:41:43.433Z,3.65
2017-07-25T17:44:11.121Z,4.47
2017-07-25T17:46:38.766Z,4.60
2017-07-25T17:49:06.403Z,4.10
2017-07-25T17:51:34.066Z,4.20
2017-07-25T17:54:02.464Z,3.97
2017-07-25T17:56:30.105Z,4.47
2017-07-25T17:58:57.782Z,3.90
2017-07-25T18:01:25.400Z,3.50
2017-07-25T18:03:53.049Z,3.58
2017-07-25T18:06:21.125Z,3.22
2017-07-25T18:08:48.817Z,3.60
2017-07-25T18:11:16.536Z,4.03
2017-07-25T18:13:44.269Z,3.62
2017-07-25T18:16:12.020Z,3.08
2017-07-25T18:18:39.724Z,3.15
2017-07-25T18:21:07.605Z,2.50
2017-07-25T18:23:35.243Z,2.67
2017-07-25T18:26:02.880Z,3.05
2017-07-25T18:28:30.638Z,2.60
2017-07-25T18:30:58.275Z,2.00
2017-07-25T18:33:26.677Z,1.85
2017-07-25T18:35:54.344Z,2.25
2017-07-25T18:38:21.968Z,1.30
2017-07-25T18:40:49.596Z,1.30
2017-07-25T18:43:17.254Z,1.10
2017-07-25T18:45:44.952Z,1.20
2017-07-25T18:48:12.580Z,0.80
2017-07-25T18:50:40.253Z,1.48
2017-07-25T18:53:07.876Z,1.08
2017-07-25T18:55:35.521Z,1.15
2017-07-25T18:58:03.191Z,0.80
2017-07-25T19:00:30.965Z,0.77
2017-07-25T19:02:58.612Z,1.08
2017-07-25T19:05:26.275Z,0.80
2017-07-25T19:07:53.932Z,1.70
2017-07-25T19:10:21.582Z,0.85
2017-07-25T19:12:49.257Z,1.23
2017-07-25T19:15:16.892Z,0.70
2017-07-25T19:17:44.531Z,1.15
2017-07-25T19:20:12.187Z,0.80
2017-07-25T19:22:39.815Z,0.77
2017-07-25T19:25:07.481Z,0.77
2017-07-25T19:27:35.163Z,1.00
2017-07-25T19:30:03.557Z,1.27
2017-07-25T19:32:31.179Z,1.45
2017-07-25T19:34:59.603Z,0.90
2017-07-25T19:37:27.467Z,1.20
2017-07-25T19:39:55.163Z,2.83
2017-07-25T19:42:22.837Z,0.80
2017-07-25T19:44:50.457Z,1.55
2017-07-25T19:47:18.088Z,1.15
2017-07-25T19:49:46.523Z,1.10
2017-07-25T19:52:14.176Z,1.10
2017-07-25T19:54:41.814Z,1.15
2017-07-25T19:57:09.484Z,0.90
2017-07-25T19:59:37.885Z,1.40
2017-07-25T20:02:05.509Z,1.00
2017-07-25T20:04:33.188Z,0.93
2017-07-25T20:07:00.833Z,1.12
2017-07-25T20:09:28.455Z,1.37
2017-07-25T20:11:56.321Z,3.65
2017-07-25T20:14:23.964Z,1.20
2017-07-25T20:16:51.609Z,1.48
2017-07-25T20:19:19.286Z,1.10
2017-07-25T20:21:46.908Z,1.40
2017-07-25T20:24:14.536Z,1.50
2017-07-25T20:26:42.204Z,1.15
2017-07-25T20:29:09.841Z,1.45
2017-07-25T20:31:37.546Z,1.55
2017-07-25T20:34:05.980Z,1.50
2017-07-25T20:36:33.607Z,1.60
2017-07-25T20:39:01.246Z,1.23
2017-07-25T20:41:28.943Z,1.20
2017-07-25T20:43:56.587Z,1.20
2017-07-25T20:46:24.218Z,1.10
2017-07-25T20:48:51.895Z,1.45
2017-07-25T20:51:19.521Z,2.65
2017-07-25T20:53:47.156Z,1.12
2017-07-25T20:56:14.841Z,0.93
2017-07-25T20:58:43.261Z,1.20
2017-07-25T21:01:10.956Z,1.10
2017-07-25T21:03:39.383Z,0.82
2017-07-25T21:06:07.007Z,0.90
2017-07-25T21:08:34.631Z,1.25
2017-07-25T21:11:02.287Z,2.17
2017-07-25T21:13:29.917Z,1.37
2017-07-25T21:15:57.556Z,0.85
2017-07-25T21:18:25.212Z,0.93
2017-07-25T21:20:52.941Z,1.17
2017-07-25T21:23:20.580Z,1.10
2017-07-25T21:25:48.257Z,1.02
2017-07-25T21:28:16.656Z,1.55
2017-07-25T21:30:44.321Z,1.73
2017-07-25T21:33:11.987Z,5.00
2017-07-25T21:35:39.616Z,1.00
2017-07-25T21:38:07.254Z,2.60
2017-07-25T21:40:34.925Z,1.30
2017-07-25T21:43:02.551Z,1.08
2017-07-25T21:45:30.185Z,1.42
2017-07-25T21:47:57.853Z,1.40
2017-07-25T21:50:25.536Z,1.90
2017-07-25T21:52:54.123Z,1.45
2017-07-25T21:55:23.268Z,1.75
2017-07-25T21:57:50.905Z,1.65
2017-07-25T22:00:18.537Z,1.40
2017-07-25T22:02:58.013Z,1.30
2017-07-25T22:05:26.455Z,1.37
2017-07-25T22:07:54.089Z,1.40
2017-07-25T22:10:21.748Z,1.35
2017-07-25T22:12:50.144Z,1.92
2017-07-25T22:15:17.777Z,1.60
2017-07-25T22:17:45.446Z,1.65
2017-07-25T22:20:13.870Z,2.10
2017-07-25T22:22:41.617Z,4.72
2017-07-25T22:25:10.050Z,1.77
2017-07-25T22:27:37.686Z,2.97
2017-07-25T22:30:05.319Z,2.35
2017-07-25T22:32:32.990Z,2.78
2017-07-25T22:35:00.641Z,3.20
2017-07-25T22:37:28.272Z,3.10
2017-07-25T22:39:55.933Z,2.58
2017-07-25T22:42:23.563Z,2.67
2017-07-25T22:44:51.193Z,2.67
2017-07-25T22:47:18.848Z,3.05
2017-07-25T22:49:46.546Z,2.70
2017-07-25T22:52:14.167Z,2.40
2017-07-25T22:54:41.834Z,2.60
2017-07-25T22:57:10.236Z,3.03
2017-07-25T22:59:37.865Z,3.00
2017-07-25T23:02:06.279Z,2.67
2017-07-25T23:04:33.916Z,2.83
2017-07-25T23:07:01.553Z,3.53
2017-07-25T23:09:29.221Z,2.60
2017-07-25T23:11:56.843Z,2.97
2017-07-25T23:14:24.476Z,2.75
2017-07-25T23:16:52.135Z,2.87
2017-07-25T23:19:19.782Z,2.80
2017-07-25T23:21:47.414Z,3.03
2017-07-25T23:24:15.073Z,2.50
2017-07-25T23:26:42.708Z,3.37
2017-07-25T23:29:10.338Z,4.22
2017-07-25T23:31:38.777Z,3.67
2017-07-25T23:34:06.400Z,4.90
2017-07-25T23:36:34.023Z,4.70
2017-07-25T23:39:01.685Z,4.60
2017-07-25T23:41:29.330Z,4.05
2017-07-25T23:43:56.965Z,3.75
2017-07-25T23:46:24.712Z,5.65
2017-07-25T23:48:52.344Z,4.70
2017-07-25T23:51:19.977Z,5.80
2017-07-25T23:53:48.413Z,4.97
2017-07-25T23:56:16.031Z,5.05
2017-07-25T23:58:43.666Z,5.85
